Time;durP1;ratioP1;P1;durP2;ratioP2;P2;SDS_P1;SDS_P2;PMS_P1;PMS_P2;Temp;Humidity;BMP_temperature;BMP_pressure;BME280_temperature;BME280_humidity;BME280_pressure;Samples;Min_cycle;Max_cycle;Signal;HPM_P1;HPM_P2
2023/07/30 00:00:52;;;;;;;5.97;1.88;;;15.20;99.90;;;14.68;100.00;101263.72;4167309;28;20022;-76
2023/07/30 00:02:53;;;;;;;5.95;2.22;;;15.20;99.90;;;14.72;100.00;101259.72;4163713;28;20033;-76
2023/07/30 00:04:54;;;;;;;10.45;2.88;;;15.20;99.90;;;14.77;100.00;101262.69;4164124;28;20378;-76
2023/07/30 00:06:55;;;;;;;9.15;2.47;;;15.30;99.90;;;14.78;100.00;101256.38;4180434;28;20056;-76
2023/07/30 00:08:55;;;;;;;7.63;2.03;;;15.30;99.90;;;14.81;100.00;101258.69;4165542;28;20072;-76
2023/07/30 00:10:58;;;;;;;9.57;3.03;;;15.30;99.90;;;14.79;100.00;101258.84;4183967;28;20024;-76
2023/07/30 00:12:58;;;;;;;7.20;2.53;;;15.30;99.90;;;14.81;100.00;101256.03;4184557;28;20410;-76
2023/07/30 00:14:59;;;;;;;8.55;1.85;;;15.30;99.90;;;14.80;100.00;101262.34;4177393;28;20017;-76
2023/07/30 00:17:01;;;;;;;10.93;2.20;;;15.30;99.90;;;14.81;100.00;101253.41;4180974;28;20524;-76
2023/07/30 00:19:02;;;;;;;8.95;2.40;;;15.40;99.90;;;14.80;100.00;101249.06;4164595;28;20033;-76
2023/07/30 00:21:03;;;;;;;5.80;1.73;;;15.30;99.90;;;14.81;100.00;101240.13;4165151;28;20033;-76
2023/07/30 00:23:04;;;;;;;6.93;2.33;;;15.40;99.90;;;14.80;100.00;101254.38;4164416;28;20113;-76
2023/07/30 00:25:05;;;;;;;8.15;2.53;;;15.30;99.90;;;14.76;100.00;101248.56;4166216;28;20028;-76
2023/07/30 00:27:06;;;;;;;10.05;2.22;;;15.30;99.90;;;14.71;100.00;101245.63;4184876;28;20029;-76
2023/07/30 00:29:07;;;;;;;8.40;1.88;;;15.30;99.90;;;14.68;100.00;101253.91;4180742;28;20412;-76
2023/07/30 00:31:08;;;;;;;8.15;2.13;;;15.30;99.90;;;14.59;100.00;101238.16;4150719;28;20430;-76
2023/07/30 00:33:09;;;;;;;9.68;2.08;;;15.20;99.90;;;14.62;100.00;101243.97;4165022;28;20428;-76
2023/07/30 00:35:10;;;;;;;6.80;1.70;;;15.20;99.90;;;14.62;100.00;101251.09;4183320;28;20503;-76
2023/07/30 00:37:11;;;;;;;11.70;2.20;;;15.10;99.90;;;14.57;100.00;101250.78;4166461;28;20025;-76
2023/07/30 00:39:12;;;;;;;7.22;1.70;;;15.10;99.90;;;14.58;100.00;101255.09;4181735;28;20369;-76
2023/07/30 00:41:13;;;;;;;9.98;2.30;;;15.10;99.90;;;14.51;100.00;101246.16;4180105;28;20048;-76
2023/07/30 00:43:14;;;;;;;7.65;2.17;;;15.10;99.90;;;14.55;100.00;101260.75;4164017;28;20093;-76
2023/07/30 00:45:15;;;;;;;10.90;2.15;;;15.10;99.90;;;14.43;100.00;101243.50;4181792;28;20029;-76
2023/07/30 00:47:16;;;;;;;9.98;2.00;;;15.10;99.90;;;14.55;100.00;101260.75;4163419;28;20025;-76
2023/07/30 00:49:17;;;;;;;12.40;2.88;;;15.10;99.90;;;14.49;100.00;101258.75;4165903;28;20452;-75
2023/07/30 00:51:20;;;;;;;11.43;2.70;;;15.00;99.90;;;14.49;100.00;101266.72;4184203;28;20025;-76
2023/07/30 00:53:23;;;;;;;10.73;2.60;;;15.00;99.90;;;14.46;100.00;101267.88;4162895;28;20036;-76
2023/07/30 00:55:24;;;;;;;10.48;2.20;;;15.00;99.90;;;14.47;100.00;101268.72;4144733;28;20018;-76
2023/07/30 00:57:26;;;;;;;6.93;2.30;;;15.00;99.90;;;14.44;100.00;101269.06;4182474;28;20091;-76
2023/07/30 00:59:27;;;;;;;15.80;2.40;;;15.00;99.90;;;14.44;100.00;101271.72;4165441;28;20037;-76
2023/07/30 01:01:33;;;;;;;10.32;3.15;;;15.00;99.90;;;14.42;100.00;101260.44;4166277;28;20504;-76
2023/07/30 01:03:34;;;;;;;6.38;2.60;;;15.00;99.90;;;14.43;100.00;101265.56;4164885;28;20100;-76
2023/07/30 01:05:35;;;;;;;7.22;2.00;;;15.00;99.90;;;14.41;100.00;101262.28;4163750;28;20417;-76
2023/07/30 01:07:36;;;;;;;9.32;2.85;;;15.00;99.90;;;14.43;100.00;101268.22;4164183;28;20034;-76
2023/07/30 01:09:37;;;;;;;9.30;1.90;;;15.00;99.90;;;14.40;100.00;101279.19;4182216;28;20044;-76
2023/07/30 01:11:39;;;;;;;13.00;2.83;;;15.00;99.90;;;14.39;100.00;101278.34;4163822;28;20073;-75
2023/07/30 01:13:41;;;;;;;11.32;1.92;;;14.90;99.90;;;14.38;100.00;101266.09;4166225;28;20076;-76
2023/07/30 01:15:43;;;;;;;11.25;2.38;;;14.90;99.90;;;14.38;100.00;101276.72;4184155;28;20077;-76
2023/07/30 01:17:45;;;;;;;6.43;2.63;;;14.90;99.90;;;14.35;100.00;101271.72;4166565;28;20013;-76
2023/07/30 01:19:46;;;;;;;10.85;2.40;;;14.90;99.90;;;14.33;100.00;101268.44;4177986;28;20047;-76
2023/07/30 01:21:47;;;;;;;8.70;2.58;;;14.90;99.90;;;14.34;100.00;101279.84;4164123;28;20026;-76
2023/07/30 01:23:48;;;;;;;10.10;2.10;;;14.90;99.90;;;14.32;100.00;101261.44;4182558;28;20013;-76
2023/07/30 01:26:00;;;;;;;8.13;2.53;;;14.90;99.90;;;14.27;100.00;101265.56;4183132;28;20021;-76
2023/07/30 01:28:04;;;;;;;10.48;2.67;;;14.90;99.90;;;14.24;100.00;101280.00;4167494;28;20026;-76
2023/07/30 01:30:22;;;;;;;;;;;14.80;99.90;;;14.21;100.00;101276.84;4163358;28;20036;-76
2023/07/30 01:32:28;;;;;;;6.93;2.17;;;14.80;99.90;;;14.21;100.00;101279.50;4163703;28;19985;-76
2023/07/30 01:34:34;;;;;;;9.23;2.83;;;14.80;99.90;;;14.20;100.00;101273.38;4178729;28;20442;-76
2023/07/30 01:36:37;;;;;;;13.73;3.60;;;14.80;99.90;;;14.19;100.00;101271.69;4166350;28;20089;-76
2023/07/30 01:38:39;;;;;;;13.35;3.15;;;14.80;99.90;;;14.18;100.00;101272.72;4168588;28;20044;-76
2023/07/30 01:40:40;;;;;;;12.88;3.88;;;14.80;99.90;;;14.18;100.00;101275.38;4169055;28;20021;-76
2023/07/30 01:42:41;;;;;;;10.85;2.97;;;14.80;99.90;;;14.20;100.00;101273.38;4166019;28;20097;-76
2023/07/30 01:44:42;;;;;;;9.73;3.53;;;14.80;99.90;;;14.23;100.00;101283.66;4161925;28;20674;-76
2023/07/30 01:46:43;;;;;;;8.02;2.75;;;14.80;99.90;;;14.20;100.00;101273.38;4158990;28;20030;-75
2023/07/30 01:48:44;;;;;;;9.93;2.10;;;14.80;99.90;;;14.19;100.00;101279.66;4167270;28;20057;-76
2023/07/30 01:50:47;;;;;;;9.38;2.58;;;14.80;99.90;;;14.16;100.00;101277.34;4176980;28;20507;-75
2023/07/30 01:52:47;;;;;;;8.45;2.22;;;14.80;99.90;;;14.20;100.00;101276.03;4179864;28;20480;-76
2023/07/30 01:54:48;;;;;;;8.23;3.13;;;14.70;99.90;;;14.17;100.00;101279.00;4175382;28;20032;-76
2023/07/30 01:56:49;;;;;;;11.63;2.55;;;14.80;99.90;;;14.15;100.00;101278.34;4162126;28;20025;-75
2023/07/30 01:58:50;;;;;;;5.82;2.38;;;14.70;99.90;;;14.17;100.00;101279.00;4181782;28;20037;-76
2023/07/30 02:00:51;;;;;;;11.73;2.22;;;14.70;99.90;;;14.16;100.00;101280.00;4174706;28;20305;-75
2023/07/30 02:02:51;;;;;;;11.18;2.30;;;14.70;99.90;;;14.14;100.00;101268.72;4153147;28;20026;-75
2023/07/30 02:04:52;;;;;;;14.98;3.05;;;14.70;99.90;;;14.13;100.00;101272.38;4153587;28;20077;-76
2023/07/30 02:06:53;;;;;;;6.80;1.85;;;14.70;99.90;;;14.09;100.00;101273.72;4183852;28;20057;-76
2023/07/30 02:08:54;;;;;;;8.07;2.10;;;14.70;99.90;;;14.05;100.00;101271.53;4159431;28;20020;-76
2023/07/30 02:10:59;;;;;;;8.90;2.67;;;14.70;99.90;;;14.08;100.00;101280.00;4175021;28;20045;-76
2023/07/30 02:13:00;;;;;;;11.82;2.88;;;14.60;99.90;;;14.02;100.00;101278.00;4155520;28;20110;-76
2023/07/30 02:15:01;;;;;;;5.28;1.48;;;14.60;99.90;;;14.01;100.00;101273.69;4155512;28;20030;-76
2023/07/30 02:17:02;;;;;;;6.35;2.10;;;14.60;99.90;;;13.99;100.00;101274.84;4164062;28;20025;-76
2023/07/30 02:19:04;;;;;;;7.85;2.42;;;14.60;99.90;;;14.02;100.00;101275.34;4184063;28;20042;-76
2023/07/30 02:21:05;;;;;;;8.82;1.75;;;14.60;99.90;;;14.01;100.00;101276.34;4180314;28;20031;-76
2023/07/30 02:23:06;;;;;;;10.32;2.42;;;14.60;99.90;;;14.01;100.00;101262.28;4155591;28;20030;-76
2023/07/30 02:25:07;;;;;;;10.75;2.15;;;14.60;99.90;;;14.06;100.00;101276.69;4180974;28;20035;-76
2023/07/30 02:27:08;;;;;;;5.40;1.73;;;14.60;99.90;;;14.00;100.00;101274.69;4159939;28;20037;-76
2023/07/30 02:29:09;;;;;;;8.05;2.28;;;14.60;99.90;;;13.99;100.00;101274.84;4152504;28;20053;-76
2023/07/30 02:31:09;;;;;;;8.05;2.25;;;14.60;99.90;;;13.96;100.00;101276.00;4162780;28;20034;-76
2023/07/30 02:33:10;;;;;;;9.93;2.20;;;14.50;99.90;;;13.94;100.00;101278.00;4153717;28;20026;-76
2023/07/30 02:35:11;;;;;;;6.03;2.30;;;14.60;99.90;;;13.98;100.00;101279.31;4136690;28;20073;-75
2023/07/30 02:37:12;;;;;;;7.70;2.42;;;14.60;99.90;;;14.00;100.00;101282.66;4162066;28;20025;-76
2023/07/30 02:39:13;;;;;;;7.80;2.03;;;14.50;99.90;;;13.95;100.00;101274.34;4165262;28;20477;-76
2023/07/30 02:41:14;;;;;;;11.82;2.08;;;14.50;99.90;;;13.95;100.00;101287.59;4159184;28;20034;-75
2023/07/30 02:43:15;;;;;;;8.43;2.63;;;14.50;99.90;;;13.91;100.00;101280.16;4158032;28;20030;-76
2023/07/30 02:45:16;;;;;;;9.85;2.40;;;14.50;99.90;;;13.91;100.00;101282.81;4159740;28;20022;-76
2023/07/30 02:47:17;;;;;;;10.57;2.70;;;14.50;99.90;;;13.92;100.00;101285.28;4154984;28;20037;-76
2023/07/30 02:49:18;;;;;;;13.52;3.03;;;14.50;99.90;;;13.99;100.00;101281.00;4157567;28;20025;-76
2023/07/30 02:51:19;;;;;;;14.70;3.63;;;14.50;99.90;;;13.96;100.00;101281.31;4161736;28;20022;-76
2023/07/30 02:53:19;;;;;;;12.10;2.78;;;14.50;99.90;;;13.94;100.00;101278.00;4154964;28;20029;-76
2023/07/30 02:55:20;;;;;;;10.80;2.38;;;14.50;99.90;;;13.91;100.00;101275.69;4165453;28;20025;-76
2023/07/30 02:57:21;;;;;;;9.13;2.47;;;14.50;99.90;;;13.94;100.00;101274.53;4155731;28;20026;-76
2023/07/30 02:59:22;;;;;;;8.13;2.20;;;14.50;99.90;;;14.03;100.00;101282.31;4153341;28;20062;-76
2023/07/30 03:01:23;;;;;;;8.10;2.20;;;14.60;99.90;;;14.12;100.00;101284.00;4156284;28;20029;-76
2023/07/30 03:03:24;;;;;;;14.80;3.15;;;14.70;99.90;;;14.26;100.00;101295.75;4154065;28;20382;-76
2023/07/30 03:05:27;;;;;;;12.05;3.35;;;14.80;99.90;;;14.37;100.00;101285.66;4153580;28;20157;-76
2023/07/30 03:07:28;;;;;;;17.08;2.55;;;14.90;99.90;;;14.48;100.00;101281.00;4161895;28;20064;-76
2023/07/30 03:09:29;;;;;;;11.88;2.83;;;15.00;99.90;;;14.60;100.00;101290.28;4157624;28;20130;-76
2023/07/30 03:11:30;;;;;;;8.10;2.28;;;15.10;99.90;;;14.72;100.00;101288.94;4168291;28;20094;-76
2023/07/30 03:13:31;;;;;;;7.72;2.30;;;15.20;99.90;;;14.76;100.00;101284.94;4166308;28;20044;-76
2023/07/30 03:15:31;;;;;;;12.95;2.95;;;15.30;99.90;;;14.85;100.00;101295.38;4166812;28;20030;-76
2023/07/30 03:17:32;;;;;;;11.55;2.35;;;15.40;99.90;;;14.92;100.00;101293.69;4162976;28;20021;-76
2023/07/30 03:19:33;;;;;;;17.40;3.38;;;15.40;99.90;;;14.95;100.00;101297.84;4155626;28;20033;-76
2023/07/30 03:21:34;;;;;;;8.93;2.30;;;15.50;99.90;;;14.98;100.00;101296.66;4159814;28;20113;-76
2023/07/30 03:23:35;;;;;;;9.10;3.15;;;15.50;99.90;;;15.06;100.00;101304.59;4158987;28;20026;-76
2023/07/30 03:25:36;;;;;;;9.90;3.17;;;15.60;99.90;;;15.08;100.00;101303.44;4162008;28;20013;-76
2023/07/30 03:27:36;;;;;;;9.43;2.60;;;15.60;99.90;;;15.12;100.00;101295.94;4154871;28;20038;-76
2023/07/30 03:29:37;;;;;;;8.82;2.50;;;15.60;99.90;;;15.14;100.00;101300.06;4167179;28;20046;-76
2023/07/30 03:31:38;;;;;;;10.93;3.05;;;15.70;99.90;;;15.17;100.00;101302.38;4167990;28;20064;-76
2023/07/30 03:33:43;;;;;;;10.10;2.15;;;15.70;99.90;;;15.16;100.00;101303.41;4161709;28;20017;-76
2023/07/30 03:35:44;;;;;;;10.40;2.80;;;15.70;99.90;;;15.15;100.00;101301.75;4149305;28;20501;-76
2023/07/30 03:37:45;;;;;;;6.97;2.05;;;15.70;99.90;;;15.18;100.00;101312.03;4181956;28;20489;-76
2023/07/30 03:39:46;;;;;;;14.85;2.65;;;15.70;99.90;;;15.13;100.00;101309.06;4168040;28;20037;-76
2023/07/30 03:41:47;;;;;;;13.13;2.88;;;15.70;99.90;;;15.08;100.00;101300.78;4156701;28;20030;-76
2023/07/30 03:43:48;;;;;;;9.27;2.45;;;15.70;99.90;;;15.11;100.00;101305.75;4182079;28;20032;-76
2023/07/30 03:45:49;;;;;;;15.10;4.18;;;15.70;99.90;;;15.06;100.00;101308.09;4151634;28;20116;-76
2023/07/30 03:47:50;;;;;;;10.80;2.90;;;15.60;99.90;;;15.08;100.00;101311.41;4172781;28;20029;-76
2023/07/30 03:49:51;;;;;;;7.35;2.78;;;15.70;99.90;;;15.09;100.00;101318.38;4170660;28;20040;-76
2023/07/30 03:51:52;;;;;;;11.90;2.58;;;15.70;99.90;;;15.09;100.00;101322.84;4168884;28;20037;-76
2023/07/30 03:53:53;;;;;;;10.18;2.78;;;15.60;99.90;;;15.07;100.00;101325.69;4176835;28;20055;-76
2023/07/30 03:55:54;;;;;;;11.02;2.80;;;15.60;99.90;;;15.03;100.00;101320.88;4178731;28;20052;-76
2023/07/30 03:57:55;;;;;;;10.88;2.70;;;15.60;99.90;;;15.00;100.00;101324.72;4160155;28;20009;-76
2023/07/30 03:59:56;;;;;;;11.75;3.40;;;15.60;99.90;;;14.94;100.00;101320.06;4172319;28;20033;-76
2023/07/30 04:01:57;;;;;;;7.13;2.30;;;15.60;99.90;;;14.90;100.00;101324.91;4167377;28;20033;-76
2023/07/30 04:03:57;;;;;;;11.23;2.65;;;15.40;99.90;;;14.86;100.00;101328.06;4169045;28;20034;-76
2023/07/30 04:05:58;;;;;;;13.43;2.80;;;15.40;99.90;;;14.82;100.00;101326.75;4176004;28;20025;-76
2023/07/30 04:08:00;;;;;;;10.90;2.45;;;15.40;99.90;;;14.78;100.00;101330.75;4174830;28;20056;-76
2023/07/30 04:10:00;;;;;;;12.77;3.05;;;15.30;99.90;;;14.79;100.00;101337.69;4169989;28;20036;-76
2023/07/30 04:12:02;;;;;;;10.35;2.55;;;15.30;99.90;;;14.85;100.00;101339.69;4177856;28;20500;-76
2023/07/30 04:14:04;;;;;;;14.63;3.05;;;15.40;99.90;;;14.94;100.00;101342.16;4168637;28;20030;-76
2023/07/30 04:16:05;;;;;;;11.00;2.20;;;15.50;99.90;;;15.01;100.00;101337.00;4177323;28;20023;-76
2023/07/30 04:18:06;;;;;;;12.68;2.60;;;15.50;99.90;;;15.08;100.00;101347.78;4152554;28;20517;-76
2023/07/30 04:20:09;;;;;;;8.63;3.25;;;15.60;99.90;;;15.12;100.00;101344.59;4179034;28;20389;-76
2023/07/30 04:22:10;;;;;;;7.47;2.58;;;15.70;99.90;;;15.23;100.00;101357.50;4176046;28;20017;-76
2023/07/30 04:24:11;;;;;;;8.77;2.20;;;15.70;99.90;;;15.29;100.00;101354.19;4173710;28;20179;-76
2023/07/30 04:26:12;;;;;;;8.00;1.92;;;15.80;99.90;;;15.35;100.00;101353.47;4177027;28;20159;-76
2023/07/30 04:28:13;;;;;;;8.73;2.42;;;15.90;99.90;;;15.34;100.00;101345.69;4168497;28;20400;-76
2023/07/30 04:30:13;;;;;;;11.32;2.80;;;15.90;99.90;;;15.40;100.00;101353.81;4154980;28;20041;-76
2023/07/30 04:32:14;;;;;;;7.32;2.38;;;16.00;99.90;;;15.43;100.00;101355.31;4168669;28;20040;-76
2023/07/30 04:34:15;;;;;;;8.95;2.33;;;16.00;99.90;;;15.43;100.00;101357.97;4170212;28;20100;-76
2023/07/30 04:36:16;;;;;;;12.20;3.13;;;16.00;99.90;;;15.43;100.00;101358.78;4155923;28;20029;-76
2023/07/30 04:38:17;;;;;;;8.93;3.00;;;16.00;99.90;;;15.47;100.00;101354.81;4172745;28;20476;-76
2023/07/30 04:40:18;;;;;;;8.82;2.40;;;16.00;99.90;;;15.49;100.00;101352.81;4164496;28;20091;-76
2023/07/30 04:42:19;;;;;;;8.32;2.13;;;16.10;99.90;;;15.50;100.00;101348.34;4161079;28;20029;-76
2023/07/30 04:44:20;;;;;;;6.80;2.70;;;16.10;99.90;;;15.52;100.00;101356.13;4159874;28;20032;-76
2023/07/30 04:46:21;;;;;;;5.10;1.88;;;16.10;99.90;;;15.55;100.00;101350.47;4178035;28;20025;-76
2023/07/30 04:48:22;;;;;;;9.77;3.05;;;16.10;99.90;;;15.58;100.00;101358.94;4160478;28;20171;-76
2023/07/30 04:50:23;;;;;;;8.75;3.35;;;16.20;99.90;;;15.59;100.00;101363.22;4163029;28;20436;-76
2023/07/30 04:52:24;;;;;;;7.78;2.33;;;16.20;99.90;;;15.60;100.00;101356.91;4167071;28;20026;-76
2023/07/30 04:54:25;;;;;;;8.65;2.42;;;16.20;99.90;;;15.65;100.00;101359.06;4156038;28;20021;-76
2023/07/30 04:56:26;;;;;;;8.43;2.65;;;16.20;99.90;;;15.67;100.00;101365.03;4158097;28;20036;-76
2023/07/30 04:58:27;;;;;;;6.95;2.70;;;16.20;99.90;;;15.67;100.00;101365.03;4183383;28;20027;-76
2023/07/30 05:00:28;;;;;;;12.70;2.40;;;16.20;99.90;;;15.67;100.00;101360.53;4165256;28;20047;-75
2023/07/30 05:02:30;;;;;;;5.68;2.10;;;16.20;99.90;;;15.72;100.00;101368.81;4160787;28;20038;-76
2023/07/30 05:04:30;;;;;;;7.63;2.25;;;16.30;99.90;;;15.75;100.00;101372.97;4155067;28;20033;-76
2023/07/30 05:06:32;;;;;;;12.25;2.90;;;16.30;99.90;;;15.74;100.00;101366.00;4178562;28;20028;-76
2023/07/30 05:08:33;;;;;;;9.30;2.60;;;16.30;99.90;;;15.77;100.00;101368.31;4150788;28;20052;-76
2023/07/30 05:10:34;;;;;;;6.82;1.95;;;16.30;99.90;;;15.81;100.00;101369.59;4175835;28;20053;-76
2023/07/30 05:12:35;;;;;;;19.58;3.08;;;16.40;99.90;;;15.82;100.00;101374.78;4160362;28;20476;-76
2023/07/30 05:14:36;;;;;;;9.18;2.67;;;16.40;99.90;;;15.86;100.00;101375.25;4166477;28;20021;-76
2023/07/30 05:16:37;;;;;;;12.15;2.33;;;16.40;99.90;;;15.88;100.00;101366.09;4164810;28;20034;-76
2023/07/30 05:18:38;;;;;;;10.15;3.30;;;16.40;99.90;;;15.96;100.00;101381.16;4181728;28;20025;-76
2023/07/30 05:20:39;;;;;;;7.72;2.20;;;16.50;99.90;;;15.98;100.00;101373.81;4175771;28;20399;-76
2023/07/30 05:22:40;;;;;;;10.98;2.40;;;16.50;99.90;;;16.00;100.00;101377.16;4175330;28;20104;-76
2023/07/30 05:24:41;;;;;;;8.63;2.38;;;16.60;99.90;;;16.04;100.00;101373.13;4166688;28;20156;-76
2023/07/30 05:26:41;;;;;;;8.57;2.17;;;16.60;99.90;;;16.08;100.00;101374.44;4180963;28;20044;-76
2023/07/30 05:28:42;;;;;;;8.00;2.55;;;16.60;99.90;;;16.14;100.00;101380.88;4173162;28;20060;-76
2023/07/30 05:30:44;;;;;;;5.90;2.22;;;16.60;99.90;;;16.18;100.00;101377.72;4177998;28;20021;-76
2023/07/30 05:32:44;;;;;;;8.35;2.42;;;16.70;99.90;;;16.23;100.00;101383.31;4168968;28;20030;-76
2023/07/30 05:34:45;;;;;;;13.18;2.55;;;16.70;99.90;;;16.25;100.00;101372.47;4185640;28;20024;-76
2023/07/30 05:36:46;;;;;;;6.72;1.85;;;16.80;99.90;;;16.31;100.00;101377.94;4161491;28;20037;-76
2023/07/30 05:38:47;;;;;;;14.20;3.15;;;16.90;99.90;;;16.43;100.00;101384.50;4165082;28;20053;-76
2023/07/30 05:40:48;;;;;;;11.65;2.85;;;16.90;99.90;;;16.45;100.00;101377.19;4174695;28;20369;-76
2023/07/30 05:42:49;;;;;;;11.68;3.10;;;17.00;99.90;;;16.59;100.00;101387.06;4175567;28;20017;-76
2023/07/30 05:44:50;;;;;;;5.90;2.28;;;17.10;99.90;;;16.72;100.00;101385.63;4182795;28;20021;-75
2023/07/30 05:46:50;;;;;;;5.90;2.50;;;17.20;99.90;;;16.83;100.00;101378.03;4169677;28;20504;-76
2023/07/30 05:48:51;;;;;;;8.07;2.60;;;17.20;99.90;;;16.99;100.00;101387.72;4155447;28;20468;-76
2023/07/30 05:50:52;;;;;;;8.77;2.50;;;17.40;99.90;;;17.13;100.00;101397.56;4181130;28;20047;-76
2023/07/30 05:52:53;;;;;;;8.63;2.42;;;17.50;99.90;;;17.21;100.00;101394.78;4173009;28;20017;-76
2023/07/30 05:54:54;;;;;;;8.50;2.17;;;17.60;99.90;;;17.33;100.00;101393.31;4185693;28;20032;-76
2023/07/30 05:56:55;;;;;;;10.30;2.90;;;17.70;99.90;;;17.38;100.00;101398.94;4185927;28;20488;-76
2023/07/30 05:58:55;;;;;;;5.97;2.38;;;17.70;99.90;;;17.47;100.00;101389.81;4160776;28;20128;-76
2023/07/30 06:00:57;;;;;;;7.78;2.10;;;17.80;99.90;;;17.55;100.00;101397.78;4160235;28;20509;-76
2023/07/30 06:02:57;;;;;;;7.65;2.13;;;17.90;99.90;;;17.58;100.00;101402.75;4167664;28;20029;-76
2023/07/30 06:04:59;;;;;;;5.57;2.15;;;17.90;99.90;;;17.52;100.00;101398.13;4173484;28;20025;-76
2023/07/30 06:07:03;;;;;;;8.68;2.35;;;17.90;99.90;;;17.48;100.00;101412.81;4164685;28;20022;-76
2023/07/30 06:09:03;;;;;;;;;;;17.90;99.90;;;17.35;100.00;101417.97;4175754;28;20062;-76
2023/07/30 06:11:04;;;;;;;9.48;2.17;;;17.90;99.90;;;17.29;100.00;101412.56;4176540;28;20376;-76
2023/07/30 06:13:05;;;;;;;9.98;2.40;;;17.80;99.90;;;17.28;100.00;101418.88;4163078;28;20021;-76
2023/07/30 06:15:10;;;;;;;7.05;2.33;;;17.80;99.90;;;17.25;100.00;101412.09;4179314;28;20096;-76
2023/07/30 06:17:10;;;;;;;8.38;2.78;;;17.80;99.90;;;17.24;100.00;101405.09;4167479;28;20021;-76
2023/07/30 06:19:11;;;;;;;12.18;3.00;;;17.80;99.90;;;17.34;100.00;101405.66;4176418;28;20025;-76
2023/07/30 06:21:12;;;;;;;7.35;2.10;;;17.80;99.90;;;17.45;100.00;101426.53;4172013;28;20508;-76
2023/07/30 06:23:13;;;;;;;11.98;2.90;;;17.90;99.90;;;17.55;100.00;101419.13;4182805;28;20029;-76
2023/07/30 06:25:14;;;;;;;9.55;2.40;;;18.00;99.90;;;17.65;100.00;101414.31;4152916;28;20030;-76
2023/07/30 06:27:15;;;;;;;7.88;2.17;;;18.00;99.90;;;17.81;100.00;101417.78;4176497;28;20021;-76
2023/07/30 06:29:16;;;;;;;11.02;3.28;;;18.20;99.90;;;17.79;100.00;101426.00;4152031;28;20078;-76
2023/07/30 06:31:16;;;;;;;11.27;3.33;;;18.20;99.90;;;17.84;100.00;101422.75;4177037;28;20021;-76
2023/07/30 06:33:17;;;;;;;9.15;2.85;;;18.30;99.90;;;17.87;100.00;101422.38;4179273;28;20033;-76
2023/07/30 06:35:18;;;;;;;12.13;3.58;;;18.30;99.90;;;17.94;100.00;101428.63;4162243;28;20393;-76
2023/07/30 06:37:19;;;;;;;10.07;3.20;;;18.30;99.90;;;17.95;100.00;101427.63;4156195;28;20053;-76
2023/07/30 06:39:21;;;;;;;9.18;2.63;;;18.30;99.90;;;17.90;100.00;101427.34;4165747;28;20065;-76
2023/07/30 06:41:22;;;;;;;10.73;3.33;;;18.30;99.90;;;17.92;100.00;101431.47;4154022;28;20060;-76
2023/07/30 06:43:23;;;;;;;17.35;4.00;;;18.30;99.90;;;17.89;100.00;101428.38;4178130;28;20025;-76
2023/07/30 06:45:24;;;;;;;9.43;3.22;;;18.20;99.90;;;17.80;100.00;101434.84;4185754;28;20033;-76
2023/07/30 06:47:25;;;;;;;11.23;3.10;;;18.20;99.90;;;17.71;100.00;101438.63;4181888;28;20096;-76
2023/07/30 06:49:26;;;;;;;7.80;3.17;;;18.10;99.90;;;17.60;100.00;101447.91;4180720;28;20029;-76
2023/07/30 06:51:27;;;;;;;8.40;3.17;;;18.00;99.90;;;17.52;100.00;101443.47;4177267;28;20017;-76
2023/07/30 06:53:28;;;;;;;9.35;3.42;;;18.00;99.90;;;17.49;100.00;101430.50;4171468;28;20489;-76
2023/07/30 06:55:29;;;;;;;10.40;3.35;;;18.00;99.90;;;17.55;100.00;101440.47;4171538;28;20025;-76
2023/07/30 06:57:30;;;;;;;9.68;2.80;;;18.00;99.90;;;17.60;100.00;101438.06;4154668;28;20037;-76
2023/07/30 06:59:31;;;;;;;15.18;3.92;;;18.00;99.90;;;17.66;100.00;101439.16;4178940;28;20385;-76
2023/07/30 07:01:32;;;;;;;10.07;3.10;;;18.00;99.90;;;17.70;100.00;101443.13;4179427;28;20032;-76
2023/07/30 07:03:32;;;;;;;10.70;3.55;;;18.10;99.90;;;17.71;100.00;101438.63;4173011;28;20029;-76
2023/07/30 07:05:33;;;;;;;15.52;3.80;;;18.10;99.90;;;17.79;100.00;101435.84;4172116;28;20034;-76
2023/07/30 07:07:34;;;;;;;13.27;4.10;;;18.20;99.90;;;17.71;100.00;101434.09;4177153;28;20523;-76
2023/07/30 07:09:35;;;;;;;8.98;3.60;;;18.20;99.90;;;17.76;100.00;101436.19;4156301;28;20034;-76
2023/07/30 07:11:36;;;;;;;13.27;3.63;;;18.30;99.90;;;17.86;100.00;101442.09;4160812;28;20022;-76
2023/07/30 07:13:37;;;;;;;14.98;3.83;;;18.40;99.90;;;17.95;100.00;101440.97;4176174;28;20032;-76
2023/07/30 07:15:37;;;;;;;12.45;3.80;;;18.50;99.90;;;18.11;100.00;101438.91;4172665;28;20060;-76
2023/07/30 07:17:39;;;;;;;13.98;4.32;;;18.50;99.90;;;18.22;100.00;101437.56;4175763;28;20439;-76
2023/07/30 07:19:40;;;;;;;11.48;3.88;;;18.60;99.90;;;18.32;100.00;101443.44;4184532;28;20583;-76
2023/07/30 07:21:41;;;;;;;12.57;4.07;;;18.80;99.90;;;18.39;100.00;101444.34;4141332;28;20077;-76
2023/07/30 07:23:42;;;;;;;15.70;4.80;;;18.90;99.90;;;18.49;100.00;101449.38;4172801;28;20033;-76
2023/07/30 07:25:44;;;;;;;12.63;3.72;;;18.90;99.90;;;18.42;100.00;101454.66;4181127;28;20025;-76
2023/07/30 07:27:45;;;;;;;11.73;3.95;;;19.00;99.90;;;18.49;100.00;101450.22;4181346;28;20092;-76
2023/07/30 07:29:46;;;;;;;12.05;3.88;;;19.00;99.90;;;18.44;100.00;101447.28;4181682;28;20041;-76
2023/07/30 07:31:46;;;;;;;7.72;3.33;;;19.10;99.90;;;18.69;100.00;101453.94;4151408;28;20022;-76
2023/07/30 07:33:47;;;;;;;11.18;4.28;;;19.20;99.90;;;18.89;100.00;101445.25;4149789;28;20022;-76
2023/07/30 07:35:48;;;;;;;14.85;3.58;;;19.30;99.90;;;19.05;100.00;101447.66;4183308;28;20017;-76
2023/07/30 07:37:49;;;;;;;9.57;4.22;;;19.40;99.90;;;19.10;100.00;101453.22;4150745;28;20018;-76
2023/07/30 07:39:50;;;;;;;12.30;4.63;;;19.50;99.90;;;19.09;100.00;101454.25;4164739;28;20026;-76
2023/07/30 07:41:51;;;;;;;10.85;4.50;;;19.50;99.90;;;19.04;100.00;101448.66;4182969;28;20407;-76
2023/07/30 07:43:53;;;;;;;12.48;4.65;;;19.60;99.90;;;19.21;100.00;101456.19;4183476;28;20028;-76
2023/07/30 07:45:54;;;;;;;13.07;4.47;;;19.60;99.90;;;19.35;100.00;101454.47;4184293;28;20500;-76
2023/07/30 07:47:55;;;;;;;11.65;3.67;;;19.70;99.90;;;19.53;100.00;101460.16;4181327;28;20032;-76
2023/07/30 07:49:56;;;;;;;10.70;3.97;;;19.80;99.90;;;19.34;100.00;101450.94;4181869;28;20029;-76
2023/07/30 07:51:57;;;;;;;13.90;4.75;;;19.90;99.90;;;19.30;99.98;101448.84;4164652;28;20068;-76
2023/07/30 07:53:58;;;;;;;8.93;4.80;;;19.80;99.90;;;19.20;99.44;101459.09;4163068;28;20057;-76
2023/07/30 07:55:58;;;;;;;12.15;4.55;;;19.70;99.90;;;19.30;99.96;101452.34;4166044;28;20060;-76
2023/07/30 07:57:59;;;;;;;10.70;4.53;;;19.70;99.90;;;19.30;98.82;101452.34;4184048;28;20047;-76
2023/07/30 08:00:00;;;;;;;11.52;4.38;;;19.70;99.90;;;19.35;99.79;101451.78;4184499;28;20025;-76
2023/07/30 08:02:01;;;;;;;10.80;4.05;;;19.70;99.90;;;19.35;98.82;101457.94;4183771;28;20116;-76
2023/07/30 08:04:02;;;;;;;11.88;5.03;;;19.70;99.90;;;19.43;98.79;101465.03;4164418;28;20026;-76
2023/07/30 08:06:03;;;;;;;9.52;4.28;;;19.80;99.90;;;19.54;99.23;101471.66;4182742;28;20029;-76
2023/07/30 08:08:04;;;;;;;9.50;3.90;;;19.90;99.90;;;19.64;98.45;101462.28;4165784;28;20029;-75
2023/07/30 08:10:06;;;;;;;18.05;4.75;;;20.00;99.90;;;19.92;95.47;101466.75;4183236;28;20504;-76
2023/07/30 08:12:07;;;;;;;7.75;3.40;;;20.20;99.90;;;20.26;94.05;101466.69;4167320;28;20071;-76
2023/07/30 08:14:08;;;;;;;13.77;4.63;;;20.40;99.90;;;20.34;90.50;101472.69;4163513;28;20021;-75
2023/07/30 08:16:09;;;;;;;11.13;4.57;;;20.60;99.90;;;20.48;88.57;101478.09;4182018;28;20024;-76